sensor_id;sensor_type;location;lat;lon;timestamp;pressure;altitude;pressure_sealevel;temperature;humidity
77725;BME280;66892;53.236;6.550;2023-02-01T00:00:45;101643.28;;;5.57;78.34
77725;BME280;66892;53.236;6.550;2023-02-01T00:03:12;101648.53;;;5.57;78.36
77725;BME280;66892;53.236;6.550;2023-02-01T00:05:40;101645.28;;;5.65;77.55
77725;BME280;66892;53.236;6.550;2023-02-01T00:08:06;101645.50;;;5.73;77.03
77725;BME280;66892;53.236;6.550;2023-02-01T00:10:32;101639.19;;;5.65;77.62
77725;BME280;66892;53.236;6.550;2023-02-01T00:12:58;101645.16;;;5.61;77.28
77725;BME280;66892;53.236;6.550;2023-02-01T00:15:24;101636.56;;;5.65;77.64
77725;BME280;66892;53.236;6.550;2023-02-01T00:17:53;101638.22;;;5.63;77.39
77725;BME280;66892;53.236;6.550;2023-02-01T00:20:20;101625.25;;;5.67;76.68
77725;BME280;66892;53.236;6.550;2023-02-01T00:22:46;101633.88;;;5.63;76.91
77725;BME280;66892;53.236;6.550;2023-02-01T00:25:12;101647.16;;;5.69;76.80
77725;BME280;66892;53.236;6.550;2023-02-01T00:27:38;101622.63;;;5.67;77.09
77725;BME280;66892;53.236;6.550;2023-02-01T00:30:05;101628.03;;;5.73;76.35
77725;BME280;66892;53.236;6.550;2023-02-01T00:32:32;101631.66;;;5.77;76.29
77725;BME280;66892;53.236;6.550;2023-02-01T00:34:58;101623.84;;;5.80;76.23
77725;BME280;66892;53.236;6.550;2023-02-01T00:37:25;101627.38;;;5.80;75.83
77725;BME280;66892;53.236;6.550;2023-02-01T00:39:51;101621.97;;;5.76;75.71
77725;BME280;66892;53.236;6.550;2023-02-01T00:42:17;101613.34;;;5.80;75.91
77725;BME280;66892;53.236;6.550;2023-02-01T00:44:43;101630.00;;;5.80;76.01
77725;BME280;66892;53.236;6.550;2023-02-01T00:47:09;101635.34;;;5.83;75.86
77725;BME280;66892;53.236;6.550;2023-02-01T00:49:35;101622.16;;;5.82;75.81
77725;BME280;66892;53.236;6.550;2023-02-01T00:52:01;101622.22;;;5.83;76.05
77725;BME280;66892;53.236;6.550;2023-02-01T00:54:29;101621.34;;;5.84;75.88
77725;BME280;66892;53.236;6.550;2023-02-01T00:56:55;101620.63;;;5.89;75.59
77725;BME280;66892;53.236;6.550;2023-02-01T00:59:21;101611.94;;;5.91;75.66
77725;BME280;66892;53.236;6.550;2023-02-01T01:01:47;101609.38;;;5.93;75.56
77725;BME280;66892;53.236;6.550;2023-02-01T01:04:13;101622.25;;;5.85;75.82
77725;BME280;66892;53.236;6.550;2023-02-01T01:06:39;101603.09;;;5.88;75.70
77725;BME280;66892;53.236;6.550;2023-02-01T01:09:06;101616.22;;;5.88;76.40
77725;BME280;66892;53.236;6.550;2023-02-01T01:11:35;101609.91;;;5.81;76.94
77725;BME280;66892;53.236;6.550;2023-02-01T01:14:01;101603.84;;;5.83;76.37
77725;BME280;66892;53.236;6.550;2023-02-01T01:16:29;101599.72;;;5.92;75.93
77725;BME280;66892;53.236;6.550;2023-02-01T01:18:57;101594.38;;;5.89;76.15
77725;BME280;66892;53.236;6.550;2023-02-01T01:21:24;101592.72;;;5.91;76.26
77725;BME280;66892;53.236;6.550;2023-02-01T01:23:50;101596.09;;;5.88;76.65
77725;BME280;66892;53.236;6.550;2023-02-01T01:26:17;101593.47;;;5.87;77.01
77725;BME280;66892;53.236;6.550;2023-02-01T01:28:45;101584.84;;;5.91;76.95
77725;BME280;66892;53.236;6.550;2023-02-01T01:31:13;101570.09;;;5.96;76.60
77725;BME280;66892;53.236;6.550;2023-02-01T01:33:39;101575.34;;;5.96;76.48
77725;BME280;66892;53.236;6.550;2023-02-01T01:36:06;101578.69;;;5.90;77.01
77725;BME280;66892;53.236;6.550;2023-02-01T01:38:32;101568.19;;;5.90;77.78
77725;BME280;66892;53.236;6.550;2023-02-01T01:40:58;101567.22;;;5.88;77.71
77725;BME280;66892;53.236;6.550;2023-02-01T01:43:24;101561.72;;;5.79;79.37
77725;BME280;66892;53.236;6.550;2023-02-01T01:45:52;101558.84;;;5.70;80.03
77725;BME280;66892;53.236;6.550;2023-02-01T01:48:21;101559.72;;;5.70;80.25
77725;BME280;66892;53.236;6.550;2023-02-01T01:50:52;101561.16;;;5.59;82.10
77725;BME280;66892;53.236;6.550;2023-02-01T01:53:24;101551.38;;;5.54;81.99
77725;BME280;66892;53.236;6.550;2023-02-01T01:55:54;101550.28;;;5.46;82.43
77725;BME280;66892;53.236;6.550;2023-02-01T01:58:24;101549.16;;;5.38;83.78
77725;BME280;66892;53.236;6.550;2023-02-01T02:00:53;101552.38;;;5.27;84.28
77725;BME280;66892;53.236;6.550;2023-02-01T02:03:22;101553.34;;;5.31;83.95
77725;BME280;66892;53.236;6.550;2023-02-01T02:05:50;101541.06;;;5.30;84.20
77725;BME280;66892;53.236;6.550;2023-02-01T02:08:17;101541.69;;;5.20;85.67
77725;BME280;66892;53.236;6.550;2023-02-01T02:10:46;101540.16;;;5.28;84.34
77725;BME280;66892;53.236;6.550;2023-02-01T02:13:28;101538.16;;;5.19;85.19
77725;BME280;66892;53.236;6.550;2023-02-01T02:16:11;101538.91;;;5.15;85.87
77725;BME280;66892;53.236;6.550;2023-02-01T02:18:45;101532.81;;;5.16;84.89
77725;BME280;66892;53.236;6.550;2023-02-01T02:21:17;101532.03;;;5.19;85.15
77725;BME280;66892;53.236;6.550;2023-02-01T02:27:17;101517.03;;;5.15;85.16
77725;BME280;66892;53.236;6.550;2023-02-01T02:30:22;101517.78;;;5.11;85.79
77725;BME280;66892;53.236;6.550;2023-02-01T02:35:53;101508.09;;;5.08;85.74
77725;BME280;66892;53.236;6.550;2023-02-01T02:38:30;101488.91;;;5.09;85.67
77725;BME280;66892;53.236;6.550;2023-02-01T02:41:05;101483.75;;;5.12;85.15
77725;BME280;66892;53.236;6.550;2023-02-01T02:43:37;101476.16;;;5.21;84.88
77725;BME280;66892;53.236;6.550;2023-02-01T02:46:33;101476.16;;;5.21;84.84
77725;BME280;66892;53.236;6.550;2023-02-01T02:49:25;101470.81;;;5.17;85.19
77725;BME280;66892;53.236;6.550;2023-02-01T02:51:59;101470.03;;;5.21;84.61
77725;BME280;66892;53.236;6.550;2023-02-01T02:54:48;101471.81;;;5.22;84.41
77725;BME280;66892;53.236;6.550;2023-02-01T02:57:19;101459.50;;;5.19;84.29
77725;BME280;66892;53.236;6.550;2023-02-01T03:00:07;101466.88;;;5.32;83.04
77725;BME280;66892;53.236;6.550;2023-02-01T03:02:54;101465.97;;;5.32;82.71
77725;BME280;66892;53.236;6.550;2023-02-01T03:05:42;101464.41;;;5.39;82.05
77725;BME280;66892;53.236;6.550;2023-02-01T03:08:13;101469.75;;;5.42;82.63
77725;BME280;66892;53.236;6.550;2023-02-01T03:10:48;101460.16;;;5.42;82.35
77725;BME280;66892;53.236;6.550;2023-02-01T03:13:21;101457.31;;;5.35;83.46
77725;BME280;66892;53.236;6.550;2023-02-01T03:15:52;101465.16;;;5.35;83.16
77725;BME280;66892;53.236;6.550;2023-02-01T03:18:24;101457.69;;;5.48;82.29
77725;BME280;66892;53.236;6.550;2023-02-01T03:20:53;101446.94;;;5.39;82.76
77725;BME280;66892;53.236;6.550;2023-02-01T03:23:26;101457.38;;;5.38;82.89
77725;BME280;66892;53.236;6.550;2023-02-01T03:25:54;101444.41;;;5.42;82.05
77725;BME280;66892;53.236;6.550;2023-02-01T03:28:23;101441.16;;;5.52;81.09
77725;BME280;66892;53.236;6.550;2023-02-01T03:30:51;101433.22;;;5.49;81.83
77725;BME280;66892;53.236;6.550;2023-02-01T03:33:19;101429.81;;;5.52;80.91
77725;BME280;66892;53.236;6.550;2023-02-01T03:35:51;101426.38;;;5.54;81.15
77725;BME280;66892;53.236;6.550;2023-02-01T03:38:24;101418.66;;;5.60;80.39
77725;BME280;66892;53.236;6.550;2023-02-01T03:40:53;101419.41;;;5.56;80.91
77725;BME280;66892;53.236;6.550;2023-02-01T03:43:22;101421.34;;;5.63;80.60
77725;BME280;66892;53.236;6.550;2023-02-01T03:45:52;101424.94;;;5.67;80.14
77725;BME280;66892;53.236;6.550;2023-02-01T03:48:22;101421.47;;;5.68;80.37
77725;BME280;66892;53.236;6.550;2023-02-01T03:50:53;101417.69;;;5.57;81.45
77725;BME280;66892;53.236;6.550;2023-02-01T03:53:24;101409.81;;;5.57;82.64
77725;BME280;66892;53.236;6.550;2023-02-01T03:55:52;101422.91;;;5.55;82.26
77725;BME280;66892;53.236;6.550;2023-02-01T03:58:21;101422.72;;;5.49;83.44
77725;BME280;66892;53.236;6.550;2023-02-01T04:00:51;101415.63;;;5.45;83.92
77725;BME280;66892;53.236;6.550;2023-02-01T04:03:17;101420.75;;;5.41;84.76
77725;BME280;66892;53.236;6.550;2023-02-01T04:05:43;101405.97;;;5.44;83.73
77725;BME280;66892;53.236;6.550;2023-02-01T04:08:09;101415.47;;;5.39;84.89
77725;BME280;66892;53.236;6.550;2023-02-01T04:10:37;101439.09;;;5.39;84.28
77725;BME280;66892;53.236;6.550;2023-02-01T04:13:02;101425.31;;;5.48;83.72
77725;BME280;66892;53.236;6.550;2023-02-01T04:15:29;101420.81;;;5.42;84.62
77725;BME280;66892;53.236;6.550;2023-02-01T04:17:55;101419.00;;;5.41;84.59
77725;BME280;66892;53.236;6.550;2023-02-01T04:20:21;101411.16;;;5.41;84.19
77725;BME280;66892;53.236;6.550;2023-02-01T04:22:47;101415.59;;;5.44;83.85
77725;BME280;66892;53.236;6.550;2023-02-01T04:25:13;101419.22;;;5.49;84.07
77725;BME280;66892;53.236;6.550;2023-02-01T04:27:40;101412.97;;;5.44;84.49
77725;BME280;66892;53.236;6.550;2023-02-01T04:30:07;101411.09;;;5.40;84.36
77725;BME280;66892;53.236;6.550;2023-02-01T04:32:35;101417.22;;;5.40;84.21
77725;BME280;66892;53.236;6.550;2023-02-01T04:35:01;101418.09;;;5.39;83.46
77725;BME280;66892;53.236;6.550;2023-02-01T04:37:27;101429.44;;;5.38;83.19
77725;BME280;66892;53.236;6.550;2023-02-01T04:39:54;101426.13;;;5.45;83.21
77725;BME280;66892;53.236;6.550;2023-02-01T04:42:21;101410.25;;;5.41;83.77
77725;BME280;66892;53.236;6.550;2023-02-01T04:44:48;101418.19;;;5.44;83.42
77725;BME280;66892;53.236;6.550;2023-02-01T04:47:14;101419.09;;;5.44;83.16
77725;BME280;66892;53.236;6.550;2023-02-01T04:49:41;101411.16;;;5.41;83.01
77725;BME280;66892;53.236;6.550;2023-02-01T04:52:07;101417.13;;;5.36;83.89
77725;BME280;66892;53.236;6.550;2023-02-01T04:54:33;101416.88;;;5.26;83.92
77725;BME280;66892;53.236;6.550;2023-02-01T04:56:59;101408.91;;;5.23;83.98
77725;BME280;66892;53.236;6.550;2023-02-01T04:59:26;101419.66;;;5.32;83.13
77725;BME280;66892;53.236;6.550;2023-02-01T05:01:53;101408.47;;;5.40;82.85
77725;BME280;66892;53.236;6.550;2023-02-01T05:04:19;101414.34;;;5.29;83.39
77725;BME280;66892;53.236;6.550;2023-02-01T05:06:45;101411.75;;;5.31;83.30
77725;BME280;66892;53.236;6.550;2023-02-01T05:09:11;101391.59;;;5.30;83.32
77725;BME280;66892;53.236;6.550;2023-02-01T05:11:38;101399.59;;;5.35;83.09
77725;BME280;66892;53.236;6.550;2023-02-01T05:14:22;101395.84;;;5.25;83.63
77725;BME280;66892;53.236;6.550;2023-02-01T05:16:48;101397.81;;;5.32;83.14
77725;BME280;66892;53.236;6.550;2023-02-01T05:19:15;101393.56;;;5.37;83.02
77725;BME280;66892;53.236;6.550;2023-02-01T05:21:41;101424.91;;;5.32;83.28
77725;BME280;66892;53.236;6.550;2023-02-01T05:24:08;101406.59;;;5.34;83.16
77725;BME280;66892;53.236;6.550;2023-02-01T05:26:39;101408.53;;;5.41;83.12
77725;BME280;66892;53.236;6.550;2023-02-01T05:29:06;101412.97;;;5.44;82.94
77725;BME280;66892;53.236;6.550;2023-02-01T05:31:33;101416.53;;;5.46;83.08
77725;BME280;66892;53.236;6.550;2023-02-01T05:33:59;101433.47;;;5.58;82.71
77725;BME280;66892;53.236;6.550;2023-02-01T05:36:27;101430.94;;;5.63;82.07
77725;BME280;66892;53.236;6.550;2023-02-01T05:38:53;101415.34;;;5.67;81.85
77725;BME280;66892;53.236;6.550;2023-02-01T05:41:19;101423.16;;;5.66;82.28
77725;BME280;66892;53.236;6.550;2023-02-01T05:43:45;101425.91;;;5.70;81.82
77725;BME280;66892;53.236;6.550;2023-02-01T05:46:11;101431.25;;;5.75;81.39
77725;BME280;66892;53.236;6.550;2023-02-01T05:48:38;101432.13;;;5.74;81.73
77725;BME280;66892;53.236;6.550;2023-02-01T05:51:04;101427.69;;;5.71;81.90
77725;BME280;66892;53.236;6.550;2023-02-01T05:53:32;101422.44;;;5.71;81.43
77725;BME280;66892;53.236;6.550;2023-02-01T05:55:58;101424.22;;;5.72;81.79
77725;BME280;66892;53.236;6.550;2023-02-01T05:58:24;101432.00;;;5.69;81.96
77725;BME280;66892;53.236;6.550;2023-02-01T06:00:50;101426.56;;;5.62;82.48
77725;BME280;66892;53.236;6.550;2023-02-01T06:03:16;101412.34;;;5.54;82.97
77725;BME280;66892;53.236;6.550;2023-02-01T06:05:43;101408.38;;;5.35;83.38
77725;BME280;66892;53.236;6.550;2023-02-01T06:08:09;101429.25;;;5.32;83.51
77725;BME280;66892;53.236;6.550;2023-02-01T06:10:37;101422.97;;;5.25;83.77
77725;BME280;66892;53.236;6.550;2023-02-01T06:13:03;101431.03;;;5.33;83.73
77725;BME280;66892;53.236;6.550;2023-02-01T06:15:29;101420.59;;;5.35;83.75
77725;BME280;66892;53.236;6.550;2023-02-01T06:17:55;101423.06;;;5.28;84.29
77725;BME280;66892;53.236;6.550;2023-02-01T06:20:21;101414.44;;;5.34;84.04
77725;BME280;66892;53.236;6.550;2023-02-01T06:22:48;101416.25;;;5.37;83.83
77725;BME280;66892;53.236;6.550;2023-02-01T06:25:14;101430.00;;;5.26;83.94
77725;BME280;66892;53.236;6.550;2023-02-01T06:27:41;101412.41;;;5.22;84.08
77725;BME280;66892;53.236;6.550;2023-02-01T06:30:08;101432.88;;;5.37;83.97
77725;BME280;66892;53.236;6.550;2023-02-01T06:32:34;101413.09;;;5.48;83.70
77725;BME280;66892;53.236;6.550;2023-02-01T06:35:01;101419.19;;;5.47;83.57
77725;BME280;66892;53.236;6.550;2023-02-01T06:37:27;101431.47;;;5.50;83.81
77725;BME280;66892;53.236;6.550;2023-02-01T06:39:55;101429.75;;;5.50;83.76
77725;BME280;66892;53.236;6.550;2023-02-01T06:42:21;101421.22;;;5.59;82.57
77725;BME280;66892;53.236;6.550;2023-02-01T06:44:48;101429.00;;;5.56;83.56
77725;BME280;66892;53.236;6.550;2023-02-01T06:47:14;101420.34;;;5.58;83.00
77725;BME280;66892;53.236;6.550;2023-02-01T06:49:40;101414.38;;;5.64;82.72
77725;BME280;66892;53.236;6.550;2023-02-01T06:52:06;101419.63;;;5.65;82.74
77725;BME280;66892;53.236;6.550;2023-02-01T06:54:32;101429.34;;;5.68;83.10
77725;BME280;66892;53.236;6.550;2023-02-01T06:56:59;101438.13;;;5.70;82.92
77725;BME280;66892;53.236;6.550;2023-02-01T06:59:25;101439.13;;;5.75;82.93
77725;BME280;66892;53.236;6.550;2023-02-01T07:01:53;101459.34;;;5.77;82.71
77725;BME280;66892;53.236;6.550;2023-02-01T07:04:19;101454.94;;;5.78;82.35
77725;BME280;66892;53.236;6.550;2023-02-01T07:06:45;101454.84;;;5.73;83.04
77725;BME280;66892;53.236;6.550;2023-02-01T07:09:11;101448.72;;;5.73;82.98
77725;BME280;66892;53.236;6.550;2023-02-01T07:11:37;101453.16;;;5.75;82.29
77725;BME280;66892;53.236;6.550;2023-02-01T07:14:06;101455.75;;;5.74;82.90
77725;BME280;66892;53.236;6.550;2023-02-01T07:16:32;101454.03;;;5.76;82.37
77725;BME280;66892;53.236;6.550;2023-02-01T07:19:00;101455.75;;;5.74;82.16
77725;BME280;66892;53.236;6.550;2023-02-01T07:21:26;101451.31;;;5.71;83.01
77725;BME280;66892;53.236;6.550;2023-02-01T07:23:53;101435.81;;;5.82;82.06
77725;BME280;66892;53.236;6.550;2023-02-01T07:26:20;101443.47;;;5.73;82.35
77725;BME280;66892;53.236;6.550;2023-02-01T07:28:46;101450.50;;;5.74;82.93
77725;BME280;66892;53.236;6.550;2023-02-01T07:31:14;101441.66;;;5.70;82.69
77725;BME280;66892;53.236;6.550;2023-02-01T07:33:48;101444.19;;;5.67;82.98
77725;BME280;66892;53.236;6.550;2023-02-01T07:36:16;101451.03;;;5.61;83.27
77725;BME280;66892;53.236;6.550;2023-02-01T07:38:42;101440.53;;;5.61;83.83
77725;BME280;66892;53.236;6.550;2023-02-01T07:41:08;101449.44;;;5.67;83.45
77725;BME280;66892;53.236;6.550;2023-02-01T07:43:35;101456.56;;;5.71;83.46
77725;BME280;66892;53.236;6.550;2023-02-01T07:46:02;101445.03;;;5.66;83.96
77725;BME280;66892;53.236;6.550;2023-02-01T07:48:29;101453.97;;;5.73;83.48
77725;BME280;66892;53.236;6.550;2023-02-01T07:50:59;101459.13;;;5.70;83.95
77725;BME280;66892;53.236;6.550;2023-02-01T07:53:29;101453.81;;;5.67;84.36
77725;BME280;66892;53.236;6.550;2023-02-01T07:55:55;101460.84;;;5.69;83.87
77725;BME280;66892;53.236;6.550;2023-02-01T07:58:24;101464.44;;;5.71;84.06
77725;BME280;66892;53.236;6.550;2023-02-01T08:00:51;101465.28;;;5.70;83.64
77725;BME280;66892;53.236;6.550;2023-02-01T08:03:36;101464.38;;;5.70;83.93
77725;BME280;66892;53.236;6.550;2023-02-01T08:06:03;101468.94;;;5.77;83.42
77725;BME280;66892;53.236;6.550;2023-02-01T08:08:30;101465.59;;;5.82;82.81
77725;BME280;66892;53.236;6.550;2023-02-01T08:10:57;101464.69;;;5.82;83.57
77725;BME280;66892;53.236;6.550;2023-02-01T08:13:23;101456.09;;;5.86;83.05
77725;BME280;66892;53.236;6.550;2023-02-01T08:15:49;101459.53;;;5.85;83.00
77725;BME280;66892;53.236;6.550;2023-02-01T08:18:15;101460.53;;;5.89;82.47
77725;BME280;66892;53.236;6.550;2023-02-01T08:20:43;101459.69;;;5.90;82.30
77725;BME280;66892;53.236;6.550;2023-02-01T08:23:11;101477.16;;;5.89;82.36
77725;BME280;66892;53.236;6.550;2023-02-01T08:25:38;101469.34;;;5.91;81.86
77725;BME280;66892;53.236;6.550;2023-02-01T08:28:05;101459.69;;;5.91;81.99
77725;BME280;66892;53.236;6.550;2023-02-01T08:30:31;101455.31;;;5.90;82.09
77725;BME280;66892;53.236;6.550;2023-02-01T08:32:57;101460.66;;;5.95;81.88
77725;BME280;66892;53.236;6.550;2023-02-01T08:35:23;101452.88;;;5.98;81.91
77725;BME280;66892;53.236;6.550;2023-02-01T08:37:50;101445.75;;;5.92;82.29
77725;BME280;66892;53.236;6.550;2023-02-01T08:40:17;101450.25;;;5.98;82.55
77725;BME280;66892;53.236;6.550;2023-02-01T08:42:44;101445.78;;;5.94;82.95
77725;BME280;66892;53.236;6.550;2023-02-01T08:45:17;101446.72;;;5.96;82.40
77725;BME280;66892;53.236;6.550;2023-02-01T08:47:43;101437.31;;;6.05;82.11
77725;BME280;66892;53.236;6.550;2023-02-01T08:50:10;101440.75;;;6.03;82.59
77725;BME280;66892;53.236;6.550;2023-02-01T08:52:36;101439.19;;;6.09;81.72
77725;BME280;66892;53.236;6.550;2023-02-01T08:55:02;101433.81;;;6.05;81.89
77725;BME280;66892;53.236;6.550;2023-02-01T08:57:28;101429.38;;;6.04;82.17
77725;BME280;66892;53.236;6.550;2023-02-01T08:59:55;101432.81;;;6.00;82.06
77725;BME280;66892;53.236;6.550;2023-02-01T09:02:21;101428.47;;;6.02;82.32
77725;BME280;66892;53.236;6.550;2023-02-01T09:04:47;101429.38;;;6.04;81.69
77725;BME280;66892;53.236;6.550;2023-02-01T09:07:14;101409.34;;;6.07;81.34
77725;BME280;66892;53.236;6.550;2023-02-01T09:09:40;101404.22;;;6.12;80.57
77725;BME280;66892;53.236;6.550;2023-02-01T09:12:06;101405.13;;;6.12;80.69
77725;BME280;66892;53.236;6.550;2023-02-01T09:14:32;101404.97;;;6.06;81.26
77725;BME280;66892;53.236;6.550;2023-02-01T09:16:59;101410.25;;;6.08;81.30
77725;BME280;66892;53.236;6.550;2023-02-01T09:19:25;101410.31;;;6.11;80.27
77725;BME280;66892;53.236;6.550;2023-02-01T09:21:51;101397.16;;;6.09;80.67
77725;BME280;66892;53.236;6.550;2023-02-01T09:24:17;101406.03;;;6.14;80.39
77725;BME280;66892;53.236;6.550;2023-02-01T09:26:44;101395.50;;;6.13;80.83
77725;BME280;66892;53.236;6.550;2023-02-01T09:29:10;101378.88;;;6.14;80.34
77725;BME280;66892;53.236;6.550;2023-02-01T09:31:36;101385.78;;;6.09;80.56
77725;BME280;66892;53.236;6.550;2023-02-01T09:34:04;101385.84;;;6.12;80.14
77725;BME280;66892;53.236;6.550;2023-02-01T09:36:31;101363.94;;;6.11;79.97
77725;BME280;66892;53.236;6.550;2023-02-01T09:38:57;101373.59;;;6.12;80.24
77725;BME280;66892;53.236;6.550;2023-02-01T09:41:35;101370.16;;;6.15;80.00
77725;BME280;66892;53.236;6.550;2023-02-01T09:44:08;101369.19;;;6.11;80.83
77725;BME280;66892;53.236;6.550;2023-02-01T09:46:36;101364.59;;;6.01;81.54
77725;BME280;66892;53.236;6.550;2023-02-01T09:49:08;101345.16;;;5.93;82.36
77725;BME280;66892;53.236;6.550;2023-02-01T09:51:37;101348.63;;;5.92;82.35
77725;BME280;66892;53.236;6.550;2023-02-01T09:54:09;101351.22;;;5.91;82.61
77725;BME280;66892;53.236;6.550;2023-02-01T09:56:42;101336.31;;;5.90;82.54
77725;BME280;66892;53.236;6.550;2023-02-01T09:59:26;101326.53;;;5.84;82.72
77725;BME280;66892;53.236;6.550;2023-02-01T10:04:32;101338.28;;;5.64;85.09
77725;BME280;66892;53.236;6.550;2023-02-01T10:07:16;101313.50;;;5.53;86.74
77725;BME280;66892;53.236;6.550;2023-02-01T10:09:55;101308.19;;;5.48;87.28
77725;BME280;66892;53.236;6.550;2023-02-01T10:12:46;101316.66;;;5.38;88.00
77725;BME280;66892;53.236;6.550;2023-02-01T10:15:25;101315.81;;;5.39;88.27
77725;BME280;66892;53.236;6.550;2023-02-01T10:20:53;101322.13;;;5.47;87.13
77725;BME280;66892;53.236;6.550;2023-02-01T10:23:37;101299.28;;;5.43;86.88
77725;BME280;66892;53.236;6.550;2023-02-01T10:26:14;101308.19;;;5.50;86.60
77725;BME280;66892;53.236;6.550;2023-02-01T10:28:43;101326.84;;;5.60;86.45
77725;BME280;66892;53.236;6.550;2023-02-01T10:31:10;101307.56;;;5.60;86.09
77725;BME280;66892;53.236;6.550;2023-02-01T10:33:41;101305.66;;;5.53;87.27
77725;BME280;66892;53.236;6.550;2023-02-01T10:36:14;101311.84;;;5.56;86.53
77725;BME280;66892;53.236;6.550;2023-02-01T10:38:43;101304.13;;;5.61;85.91
77725;BME280;66892;53.236;6.550;2023-02-01T10:41:12;101291.00;;;5.61;86.03
77725;BME280;66892;53.236;6.550;2023-02-01T10:43:40;101307.03;;;5.73;84.96
77725;BME280;66892;53.236;6.550;2023-02-01T10:46:08;101300.88;;;5.72;85.56
77725;BME280;66892;53.236;6.550;2023-02-01T10:48:35;101303.94;;;5.89;84.44
77725;BME280;66892;53.236;6.550;2023-02-01T10:51:05;101301.38;;;5.92;83.79
77725;BME280;66892;53.236;6.550;2023-02-01T10:53:36;101293.78;;;6.04;82.83
77725;BME280;66892;53.236;6.550;2023-02-01T10:56:10;101308.81;;;6.11;83.08
77725;BME280;66892;53.236;6.550;2023-02-01T10:58:43;101322.25;;;6.26;81.98
77725;BME280;66892;53.236;6.550;2023-02-01T11:01:16;101309.06;;;6.23;82.08
77725;BME280;66892;53.236;6.550;2023-02-01T11:03:44;101308.47;;;6.35;81.76
77725;BME280;66892;53.236;6.550;2023-02-01T11:06:27;101317.88;;;6.25;82.66
77725;BME280;66892;53.236;6.550;2023-02-01T11:12:00;101311.06;;;5.95;85.96
77725;BME280;66892;53.236;6.550;2023-02-01T11:14:38;101316.69;;;5.75;87.96
77725;BME280;66892;53.236;6.550;2023-02-01T11:17:20;101313.09;;;5.70;89.17
77725;BME280;66892;53.236;6.550;2023-02-01T11:19:56;101300.19;;;5.79;87.50
77725;BME280;66892;53.236;6.550;2023-02-01T11:22:24;101296.06;;;5.89;86.40
77725;BME280;66892;53.236;6.550;2023-02-01T11:24:51;101297.72;;;5.86;86.61
77725;BME280;66892;53.236;6.550;2023-02-01T11:27:21;101310.72;;;5.45;87.86
77725;BME280;66892;53.236;6.550;2023-02-01T11:29:51;101304.16;;;5.28;88.16
77725;BME280;66892;53.236;6.550;2023-02-01T11:32:22;101321.84;;;5.35;90.05
77725;BME280;66892;53.236;6.550;2023-02-01T11:34:53;101334.66;;;5.24;89.79
77725;BME280;66892;53.236;6.550;2023-02-01T11:37:24;101344.13;;;4.55;87.69
77725;BME280;66892;53.236;6.550;2023-02-01T11:39:56;101342.13;;;3.90;88.63
77725;BME280;66892;53.236;6.550;2023-02-01T11:42:26;101355.03;;;3.86;89.71
77725;BME280;66892;53.236;6.550;2023-02-01T11:45:18;101338.63;;;3.63;90.91
77725;BME280;66892;53.236;6.550;2023-02-01T11:47:44;101342.09;;;3.62;90.57
77725;BME280;66892;53.236;6.550;2023-02-01T11:50:15;101368.56;;;3.72;90.86
77725;BME280;66892;53.236;6.550;2023-02-01T11:52:51;101365.09;;;3.72;89.34
77725;BME280;66892;53.236;6.550;2023-02-01T11:55:40;101363.53;;;3.52;90.67
77725;BME280;66892;53.236;6.550;2023-02-01T12:01:33;101388.00;;;3.54;91.55
77725;BME280;66892;53.236;6.550;2023-02-01T12:04:14;101342.97;;;3.62;92.06
77725;BME280;66892;53.236;6.550;2023-02-01T12:06:49;101348.41;;;3.68;91.91
77725;BME280;66892;53.236;6.550;2023-02-01T12:09:32;101353.94;;;4.06;90.58
77725;BME280;66892;53.236;6.550;2023-02-01T12:12:08;101335.44;;;4.28;90.34
77725;BME280;66892;53.236;6.550;2023-02-01T12:14:59;101364.00;;;4.49;91.35
77725;BME280;66892;53.236;6.550;2023-02-01T12:17:43;101354.34;;;4.48;90.04
77725;BME280;66892;53.236;6.550;2023-02-01T12:20:23;101349.94;;;4.47;90.18
77725;BME280;66892;53.236;6.550;2023-02-01T12:23:04;101346.34;;;4.73;90.71
77725;BME280;66892;53.236;6.550;2023-02-01T12:25:44;101332.31;;;5.02;90.56
77725;BME280;66892;53.236;6.550;2023-02-01T12:28:30;101315.25;;;5.16;89.69
77725;BME280;66892;53.236;6.550;2023-02-01T12:31:19;101323.31;;;5.60;91.09
77725;BME280;66892;53.236;6.550;2023-02-01T12:34:07;101305.34;;;6.12;89.52
77725;BME280;66892;53.236;6.550;2023-02-01T12:36:43;101323.03;;;6.61;87.17
77725;BME280;66892;53.236;6.550;2023-02-01T12:39:20;101317.97;;;6.72;86.38
77725;BME280;66892;53.236;6.550;2023-02-01T12:41:56;101324.00;;;6.66;86.16
77725;BME280;66892;53.236;6.550;2023-02-01T12:44:42;101340.06;;;6.81;85.10
77725;BME280;66892;53.236;6.550;2023-02-01T12:47:18;101344.63;;;6.90;84.21
77725;BME280;66892;53.236;6.550;2023-02-01T12:49:54;101334.00;;;6.85;84.87
77725;BME280;66892;53.236;6.550;2023-02-01T12:52:28;101318.81;;;6.69;84.96
77725;BME280;66892;53.236;6.550;2023-02-01T12:55:05;101336.25;;;6.66;85.69
77725;BME280;66892;53.236;6.550;2023-02-01T12:57:36;101359.34;;;6.80;84.45
77725;BME280;66892;53.236;6.550;2023-02-01T13:00:17;101348.81;;;6.80;84.93
77725;BME280;66892;53.236;6.550;2023-02-01T13:02:54;101329.25;;;6.68;85.13
77725;BME280;66892;53.236;6.550;2023-02-01T13:05:29;101350.47;;;6.75;84.16
77725;BME280;66892;53.236;6.550;2023-02-01T13:08:02;101336.66;;;6.85;83.35
77725;BME280;66892;53.236;6.550;2023-02-01T13:10:34;101343.56;;;6.80;83.75
77725;BME280;66892;53.236;6.550;2023-02-01T13:13:07;101342.69;;;6.80;84.42
77725;BME280;66892;53.236;6.550;2023-02-01T13:15:40;101331.50;;;6.92;82.68
77725;BME280;66892;53.236;6.550;2023-02-01T13:18:14;101341.25;;;6.97;82.46
77725;BME280;66892;53.236;6.550;2023-02-01T13:20:49;101344.06;;;7.06;81.88
77725;BME280;66892;53.236;6.550;2023-02-01T13:23:23;101337.97;;;7.09;81.29
77725;BME280;66892;53.236;6.550;2023-02-01T13:25:51;101337.19;;;7.14;81.56
77725;BME280;66892;53.236;6.550;2023-02-01T13:28:24;101335.41;;;7.13;81.22
77725;BME280;66892;53.236;6.550;2023-02-01T13:31:08;101371.44;;;7.17;82.20
77725;BME280;66892;53.236;6.550;2023-02-01T13:33:59;101345.00;;;7.10;82.13